Alexandroupolis, Greece

1:15 AM EET on November 18, 2017 (GMT +0200)
MARONEIA WEATHER NESTORAS | | Change Station

Elev 597 ft 40.91 °N, 25.52 °E | Updated 1 second ago

Overcast
Overcast
52.9 °F
Feels Like 52.9 °F
N
19.6
Wind Variable Wind from ENE
Gusts 19.6 mph

Today
High -- | Low -- °F
--% Chance of Precip.
Yesterday
High -- | Low -- °F
Precip. -- in
Pressure 29.95 in
Visibility 6.2 miles
Clouds Mostly Cloudy 2500 ft
Overcast 8000 ft
Dew Point 48 °F
Humidity 85%
Rainfall 0.00 in
Snow Depth Not available.
7:07 AM 4:56 PM
Waning Crescent, 0% visible
METAR LGKV 172250Z 05008KT 9999 BKN025 OVC080 12/09 Q1014
Pressure 29.95 in
Visibility 6.2 miles
Clouds Mostly Cloudy 2500 ft
Overcast 8000 ft
Dew Point 48 °F
Humidity 85%
Rainfall 0.00 in
Snow Depth Not available.
7:07 AM 4:56 PM
Waning Crescent, 0% visible
METAR LGKV 172250Z 05008KT 9999 BKN025 OVC080 12/09 Q1014

Get Severe Weather Alerts

Thanks for signing up!

Be on the lookout for a verification email in your inbox.

You'll start receiving the daily forecast at 6 AM.

×

10-Day Weather Forecast

×

Almanac

Astronomy

Nov. 18, 2017 Rise Set
Actual Time
Civil Twilight
Nautical Twilight
Astronomical Twilight
Moon
Length of Visible Light
Length of Day
Tomorrow will be .
, % of the Moon is Illuminated

Today's Extremes

Country Highs Country Lows

Community

WunderPhotos

Category 6

Welcome to Category 6. This is the collective home for Weather Underground's featured writeups by Dr. Jeff Masters (right), Bob Henson (left), Chris Burt, and other regular contributors.

Nearby

Air Quality

  Air Quality AQ Index Pollutant
Not available.

Snow Depth

Station Depth Elevation

Earthquake Activity

City Distance Mag. Time & Date
Minimum magnitude displayed is 2.5.

Coastal Water Temperatures

Place Temperature

Stations

Nearby Weather Stations

Station Location Temp. Windchill Dew Point Humidity Wind Precip. Elev Updated Type